Terminal Aerodrome Forecast
Issued by NWS Jackson, MS

Home | Current Version | Previous Version | Text Only | Print | Product List | Glossary On
Versions: 1 2 3 4 5 6 7 8 9 10 11 12 13 14 15 16
632
FTUS44 KJAN 161745
TAFGWO
TAF
KGWO 161745Z 1618/1718 21008KT P6SM VCTS SCT025CB BKN040 BKN100
     FM170200 19005KT P6SM BKN090
     FM170900 20006KT 6SM BR SCT009 BKN015=

USA.gov is the U.S. government's official web portal to all federal, state and local government web resources and services.